createdAt,value
2018-09-21T00:02:13.096Z,2.65
2018-09-21T00:04:46.545Z,3.10
2018-09-21T00:07:19.927Z,3.05
2018-09-21T00:10:00.095Z,4.00
2018-09-21T00:12:33.824Z,2.33
2018-09-21T00:15:07.467Z,2.67
2018-09-21T00:17:47.467Z,2.75
2018-09-21T00:20:21.031Z,3.10
2018-09-21T00:22:54.447Z,3.00
2018-09-21T00:25:28.047Z,3.33
2018-09-21T00:28:01.610Z,2.50
2018-09-21T00:30:35.211Z,3.40
2018-09-21T00:33:08.834Z,2.75
2018-09-21T00:35:42.373Z,3.05
2018-09-21T00:38:22.277Z,2.85
2018-09-21T00:40:55.824Z,2.85
2018-09-21T00:43:29.544Z,3.02
2018-09-21T00:46:02.987Z,2.92
2018-09-21T00:48:36.451Z,3.47
2018-09-21T00:51:16.399Z,3.10
2018-09-21T00:53:49.798Z,3.02
2018-09-21T00:56:23.573Z,3.40
2018-09-21T00:58:57.012Z,4.35
2018-09-21T01:01:36.960Z,3.22
2018-09-21T01:04:16.838Z,3.00
2018-09-21T01:06:50.431Z,3.20
2018-09-21T01:09:24.883Z,3.05
2018-09-21T01:12:04.740Z,3.10
2018-09-21T01:14:38.208Z,3.17
2018-09-21T01:17:11.731Z,3.70
2018-09-21T01:19:45.204Z,3.22
2018-09-21T01:22:19.618Z,2.92
2018-09-21T01:24:53.154Z,3.20
2018-09-21T01:27:26.776Z,3.60
2018-09-21T01:30:00.307Z,3.37
2018-09-21T01:32:33.911Z,3.75
2018-09-21T01:35:07.328Z,3.40
2018-09-21T01:37:40.976Z,3.30
2018-09-21T01:40:14.434Z,3.35
2018-09-21T01:42:47.798Z,3.33
2018-09-21T01:45:21.427Z,4.03
2018-09-21T01:47:54.915Z,3.62
2018-09-21T01:50:28.385Z,3.42
2018-09-21T01:53:03.135Z,3.67
2018-09-21T01:55:36.564Z,3.90
2018-09-21T01:58:10.168Z,3.72
2018-09-21T02:00:43.739Z,3.55
2018-09-21T02:03:17.210Z,3.80
2018-09-21T02:05:50.796Z,3.40
2018-09-21T02:08:24.378Z,3.20
2018-09-21T02:10:58.088Z,3.70
2018-09-21T02:13:31.649Z,3.40
2018-09-21T02:16:05.118Z,3.67
2018-09-21T02:18:45.000Z,3.75
2018-09-21T02:21:18.424Z,3.55
2018-09-21T02:23:51.982Z,3.25
2018-09-21T02:26:26.193Z,3.65
2018-09-21T02:29:00.727Z,4.08
2018-09-21T02:31:34.249Z,3.60
2018-09-21T02:34:08.765Z,3.37
2018-09-21T02:36:42.588Z,3.92
2018-09-21T02:39:16.164Z,3.60
2018-09-21T02:41:49.795Z,3.70
2018-09-21T02:44:23.233Z,4.00
2018-09-21T02:46:56.921Z,3.62
2018-09-21T02:49:36.851Z,4.30
2018-09-21T02:52:10.549Z,3.70
2018-09-21T02:54:44.012Z,4.30
2018-09-21T02:57:18.476Z,4.33
2018-09-21T02:59:52.066Z,4.28
2018-09-21T03:02:25.693Z,3.25
2018-09-21T03:05:00.171Z,3.80
2018-09-21T03:07:39.996Z,3.37
2018-09-21T03:10:13.543Z,3.85
2018-09-21T03:12:47.097Z,3.70
2018-09-21T03:15:26.821Z,3.98
2018-09-21T03:18:00.189Z,3.77
2018-09-21T03:20:33.758Z,4.62
2018-09-21T03:23:07.127Z,3.85
2018-09-21T03:25:41.625Z,3.60
2018-09-21T03:28:15.235Z,3.58
2018-09-21T03:30:48.708Z,3.90
2018-09-21T03:33:23.261Z,4.53
2018-09-21T03:35:56.832Z,3.35
2018-09-21T03:38:31.350Z,3.40
2018-09-21T03:41:04.983Z,4.33
2018-09-21T03:43:38.782Z,3.75
2018-09-21T03:46:12.458Z,4.35
2018-09-21T03:48:45.963Z,3.87
2018-09-21T03:51:20.613Z,3.80
2018-09-21T03:53:57.351Z,3.77
2018-09-21T03:56:30.957Z,3.85
2018-09-21T03:59:10.971Z,4.12
2018-09-21T04:01:50.947Z,4.20
2018-09-21T04:04:24.409Z,4.25
2018-09-21T04:06:58.328Z,3.70
2018-09-21T04:09:32.023Z,4.50
2018-09-21T04:12:11.791Z,4.17
2018-09-21T04:14:45.383Z,4.28
2018-09-21T04:17:19.017Z,3.72
2018-09-21T04:19:52.452Z,4.17
2018-09-21T04:22:26.115Z,3.90
2018-09-21T04:25:07.291Z,4.05
2018-09-21T04:27:41.818Z,3.80
2018-09-21T04:30:15.540Z,4.42
2018-09-21T04:32:49.460Z,3.83
2018-09-21T04:35:29.972Z,4.00
2018-09-21T04:38:03.725Z,4.78
2018-09-21T04:40:38.414Z,4.05
2018-09-21T04:43:12.345Z,4.20
2018-09-21T04:45:46.257Z,3.95
2018-09-21T04:48:20.887Z,3.98
2018-09-21T04:50:54.715Z,4.12
2018-09-21T04:53:29.353Z,4.10
2018-09-21T04:56:09.753Z,3.85
2018-09-21T04:58:43.663Z,3.98
2018-09-21T05:01:23.789Z,3.83
2018-09-21T05:03:57.279Z,3.87
2018-09-21T05:06:30.927Z,4.42
2018-09-21T05:09:07.103Z,5.45
2018-09-21T05:11:47.219Z,4.17
2018-09-21T05:14:27.231Z,3.87
2018-09-21T05:17:00.699Z,4.22
2018-09-21T05:19:34.253Z,4.22
2018-09-21T05:22:07.944Z,3.65
2018-09-21T05:24:47.936Z,3.87
2018-09-21T05:27:27.982Z,4.40
2018-09-21T05:30:01.528Z,3.02
2018-09-21T05:32:35.703Z,4.42
2018-09-21T05:35:15.724Z,3.67
2018-09-21T05:37:49.085Z,3.80
2018-09-21T05:40:22.833Z,4.00
2018-09-21T05:42:57.504Z,3.58
2018-09-21T05:45:31.076Z,3.52
2018-09-21T05:48:04.538Z,3.55
2018-09-21T05:50:44.573Z,3.87
2018-09-21T05:53:24.555Z,4.53
2018-09-21T05:55:58.163Z,3.42
2018-09-21T05:58:31.887Z,3.80
2018-09-21T06:01:05.779Z,4.10
2018-09-21T06:03:39.469Z,3.90
2018-09-21T06:06:13.180Z,3.50
2018-09-21T06:08:53.083Z,3.90
2018-09-21T06:11:32.942Z,3.98
2018-09-21T06:14:06.505Z,3.25
2018-09-21T06:16:46.545Z,3.20
2018-09-21T06:19:26.457Z,3.40
2018-09-21T06:22:06.430Z,3.90
2018-09-21T06:24:39.887Z,3.62
2018-09-21T06:27:13.444Z,3.37
2018-09-21T06:29:53.329Z,3.98
2018-09-21T06:32:33.217Z,3.98
2018-09-21T06:35:12.998Z,3.62
2018-09-21T06:37:47.372Z,3.65
2018-09-21T06:40:20.877Z,3.30
2018-09-21T06:42:54.310Z,2.90
2018-09-21T06:45:27.888Z,3.55
2018-09-21T06:48:02.394Z,3.30
2018-09-21T06:50:36.812Z,2.95
2018-09-21T06:53:10.595Z,2.70
2018-09-21T06:55:50.437Z,2.87
2018-09-21T06:58:23.831Z,2.92
2018-09-21T07:01:00.304Z,3.08
2018-09-21T07:03:33.787Z,3.20
2018-09-21T07:06:07.671Z,3.25
2018-09-21T07:08:41.888Z,3.08
2018-09-21T07:11:15.379Z,2.83
2018-09-21T07:13:49.974Z,3.33
2018-09-21T07:16:23.373Z,2.77
2018-09-21T07:18:56.775Z,2.75
2018-09-21T07:21:30.329Z,6.63
2018-09-21T07:24:03.796Z,7.73
2018-09-21T07:26:37.217Z,10.30
2018-09-21T07:29:10.755Z,11.63
2018-09-21T07:31:44.228Z,12.60
2018-09-21T07:34:17.848Z,12.50
2018-09-21T07:36:57.618Z,11.77
2018-09-21T07:39:31.154Z,12.10
2018-09-21T07:42:05.526Z,13.80
2018-09-21T07:44:45.241Z,13.03
2018-09-21T07:47:25.064Z,10.60
2018-09-21T07:49:59.484Z,11.93
2018-09-21T07:52:33.041Z,15.70
2018-09-21T07:55:07.564Z,13.40
2018-09-21T07:57:47.458Z,14.80
2018-09-21T08:00:20.837Z,13.03
2018-09-21T08:02:54.497Z,13.43
2018-09-21T08:05:34.869Z,15.53
2018-09-21T08:08:14.597Z,14.27
2018-09-21T08:10:54.388Z,11.23
2018-09-21T08:13:34.351Z,14.17
2018-09-21T08:16:08.702Z,15.60
2018-09-21T08:18:42.371Z,12.57
2018-09-21T08:21:15.892Z,16.17
2018-09-21T08:23:50.316Z,16.70
2018-09-21T08:26:24.077Z,13.50
2018-09-21T08:28:58.396Z,16.00
2018-09-21T08:31:38.441Z,13.95
2018-09-21T08:34:18.492Z,15.37
2018-09-21T08:36:58.586Z,11.43
2018-09-21T08:39:33.131Z,14.33
2018-09-21T08:42:06.724Z,11.17
2018-09-21T08:44:40.499Z,12.53
2018-09-21T08:47:14.061Z,14.47
2018-09-21T08:49:54.152Z,13.70
2018-09-21T08:52:28.868Z,11.57
2018-09-21T08:55:03.439Z,12.50
2018-09-21T08:57:37.964Z,12.20
2018-09-21T09:00:11.548Z,11.17
2018-09-21T09:02:45.325Z,11.07
2018-09-21T09:05:21.431Z,11.60
2018-09-21T09:07:55.960Z,12.03
2018-09-21T09:10:35.835Z,11.53
2018-09-21T09:13:09.426Z,6.13
2018-09-21T09:15:50.167Z,7.80
2018-09-21T09:18:23.812Z,5.93
2018-09-21T09:21:03.879Z,5.67
2018-09-21T09:23:43.722Z,4.50
2018-09-21T09:26:17.388Z,4.70
2018-09-21T09:28:57.328Z,4.27
2018-09-21T09:31:37.362Z,3.43
2018-09-21T09:34:10.923Z,5.43
2018-09-21T09:36:44.392Z,5.03
2018-09-21T09:39:17.800Z,3.83
2018-09-21T09:41:52.328Z,5.27
2018-09-21T09:44:25.890Z,4.27
2018-09-21T09:46:59.548Z,5.63
2018-09-21T09:49:39.672Z,5.97
2018-09-21T09:52:14.282Z,4.33
2018-09-21T09:54:54.255Z,5.17
2018-09-21T09:57:27.839Z,6.30
2018-09-21T10:00:01.367Z,3.93
2018-09-21T10:02:34.715Z,3.67
2018-09-21T10:05:08.633Z,3.77
2018-09-21T10:07:48.604Z,3.33
2018-09-21T10:10:22.280Z,3.50
2018-09-21T10:12:55.901Z,3.80
2018-09-21T10:15:35.800Z,4.00
2018-09-21T10:18:15.854Z,3.33
2018-09-21T10:20:49.572Z,3.40
2018-09-21T10:23:23.199Z,3.03
2018-09-21T10:25:56.909Z,2.70
2018-09-21T10:28:30.589Z,2.77
2018-09-21T10:31:10.526Z,1.90
2018-09-21T10:33:45.368Z,2.90
2018-09-21T10:36:19.817Z,2.03
2018-09-21T10:38:59.661Z,2.10
2018-09-21T10:41:39.625Z,2.17
2018-09-21T10:44:13.186Z,1.90
2018-09-21T10:46:47.085Z,2.27
2018-09-21T10:49:20.569Z,2.67
2018-09-21T10:52:00.518Z,1.70
2018-09-21T10:54:34.111Z,1.83
2018-09-21T10:57:07.515Z,2.30
2018-09-21T10:59:41.117Z,2.60
2018-09-21T11:02:14.801Z,2.53
2018-09-21T11:04:48.411Z,2.57
2018-09-21T11:07:22.056Z,3.20
2018-09-21T11:10:01.835Z,3.40
2018-09-21T11:12:35.516Z,2.57
2018-09-21T11:15:09.071Z,4.43
2018-09-21T11:17:42.712Z,2.77
2018-09-21T11:20:17.380Z,3.07
2018-09-21T11:22:50.988Z,2.03
2018-09-21T11:25:24.960Z,1.90
2018-09-21T11:27:58.728Z,2.63
2018-09-21T11:30:32.569Z,1.80
2018-09-21T11:33:06.206Z,1.50
2018-09-21T11:35:46.414Z,1.60
2018-09-21T11:38:20.237Z,1.80
2018-09-21T11:41:00.376Z,1.77
2018-09-21T11:43:33.790Z,1.67
2018-09-21T11:46:07.549Z,1.27
2018-09-21T11:48:40.915Z,1.30
2018-09-21T11:51:14.488Z,1.20
2018-09-21T11:53:49.221Z,1.43
2018-09-21T11:56:22.784Z,1.20
2018-09-21T11:58:56.435Z,1.30
2018-09-21T12:01:36.661Z,1.77
2018-09-21T12:04:10.383Z,1.30
2018-09-21T12:06:44.180Z,1.43
2018-09-21T12:09:17.810Z,1.70
2018-09-21T12:11:52.232Z,1.20
2018-09-21T12:14:26.722Z,1.05
2018-09-21T12:17:00.481Z,1.25
2018-09-21T12:19:40.677Z,1.37
2018-09-21T12:22:20.702Z,0.93
2018-09-21T12:24:54.209Z,1.10
2018-09-21T12:27:34.300Z,0.80
2018-09-21T12:30:07.911Z,1.27
2018-09-21T12:32:47.914Z,1.10
2018-09-21T12:35:22.449Z,0.93
2018-09-21T12:37:56.234Z,1.30
2018-09-21T12:40:29.764Z,1.03
2018-09-21T12:43:03.477Z,1.30
2018-09-21T12:45:37.127Z,1.23
2018-09-21T12:48:17.114Z,1.15
2018-09-21T12:50:57.231Z,1.02
2018-09-21T12:53:32.101Z,1.12
2018-09-21T12:56:05.759Z,1.40
2018-09-21T12:58:45.960Z,1.20
2018-09-21T13:01:20.528Z,1.40
2018-09-21T13:04:00.596Z,0.95
2018-09-21T13:06:34.172Z,1.12
2018-09-21T13:09:07.976Z,1.10
2018-09-21T13:11:47.984Z,0.98
2018-09-21T13:14:21.554Z,0.93
2018-09-21T13:17:01.516Z,0.88
2018-09-21T13:19:41.414Z,1.00
2018-09-21T13:22:14.995Z,1.40
2018-09-21T13:24:54.852Z,1.00
2018-09-21T13:27:28.512Z,1.25
2018-09-21T13:30:02.003Z,1.12
2018-09-21T13:32:36.516Z,0.82
2018-09-21T13:35:16.455Z,0.90
2018-09-21T13:37:49.957Z,1.10
2018-09-21T13:40:23.552Z,0.60
2018-09-21T13:43:03.384Z,1.10
2018-09-21T13:45:36.984Z,0.93
2018-09-21T13:48:10.517Z,1.02
2018-09-21T13:50:44.743Z,1.27
2018-09-21T13:53:18.447Z,1.05
2018-09-21T13:55:52.009Z,0.90
2018-09-21T13:58:32.188Z,1.00
2018-09-21T14:01:06.106Z,1.15
2018-09-21T14:03:39.901Z,0.70
2018-09-21T14:06:13.791Z,0.85
2018-09-21T14:08:47.465Z,0.72
2018-09-21T14:11:27.341Z,0.70
2018-09-21T14:14:00.860Z,0.95
2018-09-21T14:16:40.863Z,0.80
2018-09-21T14:19:14.609Z,0.95
2018-09-21T14:21:54.790Z,0.80
2018-09-21T14:24:29.324Z,1.00
2018-09-21T14:27:04.152Z,1.77
2018-09-21T14:29:37.805Z,0.85
2018-09-21T14:32:11.648Z,0.72
2018-09-21T14:34:45.597Z,1.27
2018-09-21T14:37:25.616Z,0.82
2018-09-21T14:39:59.304Z,0.90
2018-09-21T14:42:33.254Z,0.88
2018-09-21T14:45:13.028Z,0.90
2018-09-21T14:47:46.542Z,0.95
2018-09-21T14:50:20.185Z,1.07
2018-09-21T14:52:53.790Z,1.03
2018-09-21T14:55:27.258Z,0.83
2018-09-21T14:58:07.011Z,0.90
2018-09-21T15:00:46.949Z,1.17
2018-09-21T15:03:20.679Z,0.87
2018-09-21T15:05:54.423Z,1.03
2018-09-21T15:08:28.253Z,1.23
2018-09-21T15:11:01.719Z,1.00
2018-09-21T15:13:41.863Z,0.97
2018-09-21T15:16:15.546Z,0.90
2018-09-21T15:18:55.629Z,1.03
2018-09-21T15:21:35.677Z,1.07
2018-09-21T15:24:11.150Z,0.97
2018-09-21T15:26:44.697Z,0.90
2018-09-21T15:29:18.524Z,1.00
2018-09-21T15:31:52.270Z,0.90
2018-09-21T15:34:25.692Z,0.83
2018-09-21T15:36:59.211Z,1.10
2018-09-21T15:39:32.996Z,1.47
2018-09-21T15:42:06.974Z,1.27
2018-09-21T15:44:46.833Z,1.47
2018-09-21T15:47:20.526Z,1.20
2018-09-21T15:50:00.448Z,1.57
2018-09-21T15:52:33.937Z,1.50
2018-09-21T15:55:07.579Z,1.03
2018-09-21T15:57:41.273Z,2.30
2018-09-21T16:00:17.018Z,2.77
2018-09-21T16:02:51.304Z,1.73
2018-09-21T16:05:26.449Z,1.20
2018-09-21T16:08:00.048Z,1.17
2018-09-21T16:10:40.032Z,0.97
2018-09-21T16:13:13.645Z,1.10
2018-09-21T16:15:47.758Z,0.90
2018-09-21T16:18:27.880Z,1.80
2018-09-21T16:21:07.891Z,1.30
2018-09-21T16:23:42.492Z,1.30
2018-09-21T16:26:15.927Z,1.20
2018-09-21T16:28:49.611Z,1.03
2018-09-21T16:31:23.265Z,1.40
2018-09-21T16:33:56.891Z,1.37
2018-09-21T16:36:31.720Z,1.20
2018-09-21T16:39:12.372Z,1.10
2018-09-21T16:41:52.419Z,1.30
2018-09-21T16:44:26.256Z,1.23
2018-09-21T16:46:59.939Z,1.40
2018-09-21T16:49:34.356Z,1.50
2018-09-21T16:52:14.332Z,1.10
2018-09-21T16:54:47.839Z,1.33
2018-09-21T16:57:27.772Z,1.20
2018-09-21T17:00:01.276Z,1.70
2018-09-21T17:02:41.253Z,1.20
2018-09-21T17:05:16.040Z,1.13
2018-09-21T17:07:50.240Z,1.77
2018-09-21T17:10:23.813Z,1.50
2018-09-21T17:13:03.817Z,0.90
2018-09-21T17:15:37.405Z,1.07
2018-09-21T17:18:17.585Z,1.10
2018-09-21T17:20:51.144Z,0.90
2018-09-21T17:23:24.724Z,1.20
2018-09-21T17:25:58.327Z,1.20
2018-09-21T17:28:32.229Z,1.30
2018-09-21T17:31:05.808Z,1.40
2018-09-21T17:33:39.453Z,1.20
2018-09-21T17:36:13.011Z,1.00
2018-09-21T17:38:52.859Z,1.00
2018-09-21T17:41:33.118Z,0.77
2018-09-21T17:44:13.170Z,0.60
2018-09-21T17:46:46.669Z,0.60
2018-09-21T17:49:27.293Z,0.43
2018-09-21T17:52:00.867Z,1.00
2018-09-21T17:54:34.460Z,2.13
2018-09-21T17:57:08.427Z,1.50
2018-09-21T17:59:48.377Z,1.50
2018-09-21T18:02:28.320Z,2.13
2018-09-21T18:05:01.812Z,2.73
2018-09-21T18:07:35.297Z,2.80
2018-09-21T18:10:10.772Z,3.27
2018-09-21T18:12:44.130Z,4.80
2018-09-21T18:15:24.023Z,2.40
2018-09-21T18:17:57.484Z,2.40
2018-09-21T18:20:37.334Z,3.00
2018-09-21T18:23:17.393Z,4.97
2018-09-21T18:25:57.365Z,4.58
2018-09-21T18:28:32.217Z,4.63
2018-09-21T18:31:05.779Z,2.20
2018-09-21T18:33:39.268Z,2.07
2018-09-21T18:36:12.800Z,1.80
2018-09-21T18:38:46.194Z,1.20
2018-09-21T18:41:20.533Z,1.40
2018-09-21T18:43:54.380Z,2.50
2018-09-21T18:46:28.009Z,2.10
2018-09-21T18:49:01.827Z,2.80
2018-09-21T18:51:35.372Z,1.77
2018-09-21T18:54:10.162Z,1.70
2018-09-21T18:56:44.207Z,1.70
2018-09-21T18:59:17.798Z,1.70
2018-09-21T19:01:57.856Z,2.27
2018-09-21T19:04:37.787Z,2.93
2018-09-21T19:07:17.161Z,2.50
2018-09-21T19:09:57.540Z,1.83
2018-09-21T19:12:37.562Z,2.00
2018-09-21T19:15:11.165Z,2.23
2018-09-21T19:17:44.812Z,2.50
2018-09-21T19:20:24.773Z,3.50
2018-09-21T19:22:58.472Z,2.03
2018-09-21T19:25:38.359Z,2.53
2018-09-21T19:28:12.114Z,2.10
2018-09-21T19:30:52.150Z,2.50
2018-09-21T19:33:25.716Z,1.97
2018-09-21T19:36:00.392Z,1.33
2018-09-21T19:38:34.263Z,2.27
2018-09-21T19:41:07.810Z,2.10
2018-09-21T19:43:41.384Z,1.83
2018-09-21T19:46:21.634Z,1.90
2018-09-21T19:49:01.461Z,2.60
2018-09-21T19:51:41.504Z,2.70
2018-09-21T19:54:15.057Z,1.83
2018-09-21T19:56:55.345Z,2.60
2018-09-21T19:59:35.432Z,2.77
2018-09-21T20:02:15.425Z,3.90
2018-09-21T20:04:49.111Z,3.93
2018-09-21T20:37:53.646Z,4.13
2018-09-21T20:40:27.406Z,4.70
2018-09-21T20:43:00.988Z,5.73
2018-09-21T20:45:34.499Z,4.97
2018-09-21T20:48:08.140Z,3.43
2018-09-21T20:50:48.370Z,5.43
2018-09-21T20:53:22.819Z,4.73
2018-09-21T20:56:02.930Z,6.10
2018-09-21T20:58:36.989Z,6.60
2018-09-21T21:01:10.761Z,6.20
2018-09-21T21:03:44.625Z,7.20
2018-09-21T21:06:19.566Z,7.50
2018-09-21T21:08:59.742Z,6.97
2018-09-21T21:11:33.456Z,7.87
2018-09-21T21:14:13.836Z,7.90
2018-09-21T21:16:47.981Z,6.83
2018-09-21T21:19:29.224Z,5.80
2018-09-21T21:22:09.635Z,5.00
2018-09-21T21:24:43.579Z,5.67
2018-09-21T21:27:23.656Z,4.83
2018-09-21T21:29:57.330Z,5.33
2018-09-21T21:32:30.752Z,4.33
2018-09-21T21:35:04.210Z,5.57
2018-09-21T21:37:38.887Z,5.30
2018-09-21T21:40:12.629Z,3.97
2018-09-21T21:42:52.655Z,4.43
2018-09-21T21:45:26.345Z,5.20
2018-09-21T21:48:00.744Z,5.73
2018-09-21T21:50:34.371Z,4.73
2018-09-21T21:53:08.166Z,5.10
2018-09-21T21:55:41.860Z,5.63
2018-09-21T21:58:15.631Z,4.63
2018-09-21T22:00:54.923Z,4.90
2018-09-21T22:03:29.524Z,5.47
2018-09-21T22:06:03.008Z,5.27
2018-09-21T22:08:46.340Z,5.97
2018-09-21T22:11:25.836Z,7.27
2018-09-21T22:14:07.426Z,6.87
2018-09-21T22:16:40.758Z,7.27
2018-09-21T22:19:14.225Z,6.77
2018-09-21T22:21:48.030Z,6.23
2018-09-21T22:24:21.427Z,7.13
2018-09-21T22:26:54.994Z,6.07
2018-09-21T22:29:28.373Z,6.77
2018-09-21T22:32:08.094Z,5.67
2018-09-21T22:34:47.840Z,5.03
2018-09-21T22:37:21.364Z,4.90
2018-09-21T22:39:54.734Z,6.33
2018-09-21T22:42:28.098Z,5.80
2018-09-21T22:45:02.578Z,4.53
2018-09-21T22:47:35.981Z,4.90
2018-09-21T22:50:09.650Z,3.80
2018-09-21T22:52:43.168Z,5.47
2018-09-21T22:55:16.626Z,4.00
2018-09-21T22:57:50.056Z,4.83
2018-09-21T23:00:23.551Z,4.40
2018-09-21T23:02:57.124Z,4.70
2018-09-21T23:05:30.617Z,4.97
2018-09-21T23:08:04.237Z,5.03
2018-09-21T23:10:44.037Z,4.60
2018-09-21T23:13:17.617Z,5.10
2018-09-21T23:15:51.466Z,6.43
2018-09-21T23:18:24.947Z,5.90
2018-09-21T23:21:04.794Z,4.77
2018-09-21T23:23:38.435Z,4.10
2018-09-21T23:26:12.025Z,5.70
2018-09-21T23:28:45.635Z,3.67
2018-09-21T23:38:28.513Z,7.13
2018-09-21T23:41:02.996Z,4.60
2018-09-21T23:43:36.624Z,5.37
2018-09-21T23:46:10.268Z,5.27
2018-09-21T23:48:43.787Z,5.33
2018-09-21T23:51:23.918Z,5.53
2018-09-21T23:53:57.392Z,4.57
2018-09-21T23:56:30.977Z,5.43
2018-09-21T23:59:11.005Z,4.67
